sensor_id;sensor_type;location;lat;lon;timestamp;pressure;altitude;pressure_sealevel;temperature
13570;BMP180;6856;51.460;7.158;2024-03-02T00:01:14;98946.00;;;11.90
13570;BMP180;6856;51.460;7.158;2024-03-02T00:03:48;98938.00;;;11.90
13570;BMP180;6856;51.460;7.158;2024-03-02T00:06:22;98938.00;;;11.90
13570;BMP180;6856;51.460;7.158;2024-03-02T00:08:58;98940.00;;;11.90
13570;BMP180;6856;51.460;7.158;2024-03-02T00:11:35;98937.00;;;11.90
13570;BMP180;6856;51.460;7.158;2024-03-02T00:14:10;98936.00;;;11.90
13570;BMP180;6856;51.460;7.158;2024-03-02T00:16:46;98927.00;;;11.90
13570;BMP180;6856;51.460;7.158;2024-03-02T00:19:21;98944.00;;;11.90
13570;BMP180;6856;51.460;7.158;2024-03-02T00:21:56;98907.00;;;11.90
13570;BMP180;6856;51.460;7.158;2024-03-02T00:24:34;98936.00;;;11.90
13570;BMP180;6856;51.460;7.158;2024-03-02T00:27:14;98947.00;;;11.90
13570;BMP180;6856;51.460;7.158;2024-03-02T00:29:48;98943.00;;;11.90
13570;BMP180;6856;51.460;7.158;2024-03-02T00:32:25;98940.00;;;11.90
13570;BMP180;6856;51.460;7.158;2024-03-02T00:35:00;98921.00;;;12.00
13570;BMP180;6856;51.460;7.158;2024-03-02T00:37:35;98917.00;;;11.90
13570;BMP180;6856;51.460;7.158;2024-03-02T00:40:11;98926.00;;;11.90
13570;BMP180;6856;51.460;7.158;2024-03-02T00:42:46;98917.00;;;11.90
13570;BMP180;6856;51.460;7.158;2024-03-02T00:45:20;98920.00;;;11.90
13570;BMP180;6856;51.460;7.158;2024-03-02T00:47:55;98912.00;;;11.90
13570;BMP180;6856;51.460;7.158;2024-03-02T00:50:29;98897.00;;;11.90
13570;BMP180;6856;51.460;7.158;2024-03-02T00:53:05;98912.00;;;11.90
13570;BMP180;6856;51.460;7.158;2024-03-02T00:55:43;98900.00;;;11.90
13570;BMP180;6856;51.460;7.158;2024-03-02T00:58:19;98911.00;;;11.90
13570;BMP180;6856;51.460;7.158;2024-03-02T01:00:53;98893.00;;;11.90
13570;BMP180;6856;51.460;7.158;2024-03-02T01:03:31;98902.00;;;11.90
13570;BMP180;6856;51.460;7.158;2024-03-02T01:06:05;98898.00;;;11.90
13570;BMP180;6856;51.460;7.158;2024-03-02T01:08:40;98897.00;;;11.90
13570;BMP180;6856;51.460;7.158;2024-03-02T01:11:13;98914.00;;;11.90
13570;BMP180;6856;51.460;7.158;2024-03-02T01:13:48;98899.00;;;11.90
13570;BMP180;6856;51.460;7.158;2024-03-02T01:16:22;98904.00;;;12.00
13570;BMP180;6856;51.460;7.158;2024-03-02T01:19:01;98908.00;;;12.00
13570;BMP180;6856;51.460;7.158;2024-03-02T01:21:36;98901.00;;;12.00
13570;BMP180;6856;51.460;7.158;2024-03-02T01:24:11;98893.00;;;12.00
13570;BMP180;6856;51.460;7.158;2024-03-02T01:26:46;98907.00;;;12.00
13570;BMP180;6856;51.460;7.158;2024-03-02T01:29:19;98908.00;;;12.00
13570;BMP180;6856;51.460;7.158;2024-03-02T01:31:53;98879.00;;;12.00
13570;BMP180;6856;51.460;7.158;2024-03-02T01:34:30;98915.00;;;12.10
13570;BMP180;6856;51.460;7.158;2024-03-02T01:37:04;98897.00;;;12.10
13570;BMP180;6856;51.460;7.158;2024-03-02T01:39:38;98908.00;;;12.10
13570;BMP180;6856;51.460;7.158;2024-03-02T01:42:13;98908.00;;;12.10
13570;BMP180;6856;51.460;7.158;2024-03-02T01:44:47;98902.00;;;12.20
13570;BMP180;6856;51.460;7.158;2024-03-02T01:47:21;98903.00;;;12.20
13570;BMP180;6856;51.460;7.158;2024-03-02T01:49:57;98897.00;;;12.20
13570;BMP180;6856;51.460;7.158;2024-03-02T01:52:30;98905.00;;;12.20
13570;BMP180;6856;51.460;7.158;2024-03-02T01:55:05;98898.00;;;12.20
13570;BMP180;6856;51.460;7.158;2024-03-02T01:57:39;98896.00;;;12.30
13570;BMP180;6856;51.460;7.158;2024-03-02T02:00:14;98887.00;;;12.30
13570;BMP180;6856;51.460;7.158;2024-03-02T02:02:49;98860.00;;;12.30
13570;BMP180;6856;51.460;7.158;2024-03-02T02:05:24;98891.00;;;12.30
13570;BMP180;6856;51.460;7.158;2024-03-02T02:07:58;98887.00;;;12.30
13570;BMP180;6856;51.460;7.158;2024-03-02T02:10:32;98881.00;;;12.30
13570;BMP180;6856;51.460;7.158;2024-03-02T02:13:07;98860.00;;;12.30
13570;BMP180;6856;51.460;7.158;2024-03-02T02:15:44;98877.00;;;12.30
13570;BMP180;6856;51.460;7.158;2024-03-02T02:18:18;98880.00;;;12.30
13570;BMP180;6856;51.460;7.158;2024-03-02T02:20:53;98864.00;;;12.30
13570;BMP180;6856;51.460;7.158;2024-03-02T02:23:30;98876.00;;;12.30
13570;BMP180;6856;51.460;7.158;2024-03-02T02:26:04;98875.00;;;12.30
13570;BMP180;6856;51.460;7.158;2024-03-02T02:28:38;98873.00;;;12.30
13570;BMP180;6856;51.460;7.158;2024-03-02T02:31:20;98855.00;;;12.30
13570;BMP180;6856;51.460;7.158;2024-03-02T02:33:54;98883.00;;;12.30
13570;BMP180;6856;51.460;7.158;2024-03-02T02:36:30;98880.00;;;12.40
13570;BMP180;6856;51.460;7.158;2024-03-02T02:39:07;98876.00;;;12.40
13570;BMP180;6856;51.460;7.158;2024-03-02T02:41:43;98833.00;;;12.30
13570;BMP180;6856;51.460;7.158;2024-03-02T02:44:17;98879.00;;;12.30
13570;BMP180;6856;51.460;7.158;2024-03-02T02:46:51;98875.00;;;12.30
13570;BMP180;6856;51.460;7.158;2024-03-02T02:49:24;98854.00;;;12.40
13570;BMP180;6856;51.460;7.158;2024-03-02T02:51:58;98874.00;;;12.30
13570;BMP180;6856;51.460;7.158;2024-03-02T02:54:33;98824.00;;;12.40
13570;BMP180;6856;51.460;7.158;2024-03-02T02:57:07;98871.00;;;12.40
13570;BMP180;6856;51.460;7.158;2024-03-02T02:59:41;98868.00;;;12.40
13570;BMP180;6856;51.460;7.158;2024-03-02T03:02:15;98872.00;;;12.40
13570;BMP180;6856;51.460;7.158;2024-03-02T03:04:49;98873.00;;;12.40
13570;BMP180;6856;51.460;7.158;2024-03-02T03:07:23;98870.00;;;12.40
13570;BMP180;6856;51.460;7.158;2024-03-02T03:09:58;98871.00;;;12.40
13570;BMP180;6856;51.460;7.158;2024-03-02T03:12:34;98870.00;;;12.40
13570;BMP180;6856;51.460;7.158;2024-03-02T03:15:10;98866.00;;;12.40
13570;BMP180;6856;51.460;7.158;2024-03-02T03:17:45;98867.00;;;12.40
13570;BMP180;6856;51.460;7.158;2024-03-02T03:20:19;98868.00;;;12.40
13570;BMP180;6856;51.460;7.158;2024-03-02T03:22:54;98834.00;;;12.30
13570;BMP180;6856;51.460;7.158;2024-03-02T03:25:29;98862.00;;;12.40
13570;BMP180;6856;51.460;7.158;2024-03-02T03:28:04;98862.00;;;12.40
13570;BMP180;6856;51.460;7.158;2024-03-02T03:30:39;98870.00;;;12.40
13570;BMP180;6856;51.460;7.158;2024-03-02T03:33:13;98877.00;;;12.40
13570;BMP180;6856;51.460;7.158;2024-03-02T03:35:47;98881.00;;;12.40
13570;BMP180;6856;51.460;7.158;2024-03-02T03:38:21;98767.00;;;12.50
13570;BMP180;6856;51.460;7.158;2024-03-02T03:40:56;98874.00;;;12.50
13570;BMP180;6856;51.460;7.158;2024-03-02T03:43:30;98883.00;;;12.50
13570;BMP180;6856;51.460;7.158;2024-03-02T03:46:05;98896.00;;;12.50
13570;BMP180;6856;51.460;7.158;2024-03-02T03:48:39;98897.00;;;12.50
13570;BMP180;6856;51.460;7.158;2024-03-02T03:51:14;98892.00;;;12.50
13570;BMP180;6856;51.460;7.158;2024-03-02T03:53:48;98892.00;;;12.50
13570;BMP180;6856;51.460;7.158;2024-03-02T03:56:23;98885.00;;;12.50
13570;BMP180;6856;51.460;7.158;2024-03-02T03:58:57;98886.00;;;12.50
13570;BMP180;6856;51.460;7.158;2024-03-02T04:01:32;98905.00;;;12.50
13570;BMP180;6856;51.460;7.158;2024-03-02T04:04:06;98892.00;;;12.50
13570;BMP180;6856;51.460;7.158;2024-03-02T04:06:40;98892.00;;;12.50
13570;BMP180;6856;51.460;7.158;2024-03-02T04:09:14;98891.00;;;12.50
13570;BMP180;6856;51.460;7.158;2024-03-02T04:11:52;98890.00;;;12.50
13570;BMP180;6856;51.460;7.158;2024-03-02T04:14:26;98894.00;;;12.50
13570;BMP180;6856;51.460;7.158;2024-03-02T04:17:00;98893.00;;;12.50
13570;BMP180;6856;51.460;7.158;2024-03-02T04:19:34;98902.00;;;12.50
13570;BMP180;6856;51.460;7.158;2024-03-02T04:22:09;98896.00;;;12.50
13570;BMP180;6856;51.460;7.158;2024-03-02T04:24:55;98900.00;;;12.50
13570;BMP180;6856;51.460;7.158;2024-03-02T04:27:31;98903.00;;;12.50
13570;BMP180;6856;51.460;7.158;2024-03-02T04:30:07;98900.00;;;12.50
13570;BMP180;6856;51.460;7.158;2024-03-02T04:32:41;98908.00;;;12.50
13570;BMP180;6856;51.460;7.158;2024-03-02T04:35:19;98904.00;;;12.50
13570;BMP180;6856;51.460;7.158;2024-03-02T04:37:53;98886.00;;;12.50
13570;BMP180;6856;51.460;7.158;2024-03-02T04:40:27;98906.00;;;12.50
13570;BMP180;6856;51.460;7.158;2024-03-02T04:43:03;98908.00;;;12.50
13570;BMP180;6856;51.460;7.158;2024-03-02T04:45:38;98891.00;;;12.50
13570;BMP180;6856;51.460;7.158;2024-03-02T04:48:12;98914.00;;;12.50
13570;BMP180;6856;51.460;7.158;2024-03-02T04:50:47;98902.00;;;12.50
13570;BMP180;6856;51.460;7.158;2024-03-02T04:53:20;98914.00;;;12.50
13570;BMP180;6856;51.460;7.158;2024-03-02T04:55:53;98893.00;;;12.50
13570;BMP180;6856;51.460;7.158;2024-03-02T04:58:45;98917.00;;;12.50
13570;BMP180;6856;51.460;7.158;2024-03-02T05:01:19;98915.00;;;12.50
13570;BMP180;6856;51.460;7.158;2024-03-02T05:03:53;98927.00;;;12.40
13570;BMP180;6856;51.460;7.158;2024-03-02T05:06:27;98912.00;;;12.30
13570;BMP180;6856;51.460;7.158;2024-03-02T05:09:02;98918.00;;;12.40
13570;BMP180;6856;51.460;7.158;2024-03-02T05:11:36;98913.00;;;12.40
13570;BMP180;6856;51.460;7.158;2024-03-02T05:14:43;98895.00;;;12.40
13570;BMP180;6856;51.460;7.158;2024-03-02T05:17:17;98917.00;;;12.30
13570;BMP180;6856;51.460;7.158;2024-03-02T05:19:51;98890.00;;;12.30
13570;BMP180;6856;51.460;7.158;2024-03-02T05:22:25;98913.00;;;12.30
13570;BMP180;6856;51.460;7.158;2024-03-02T05:25:00;98911.00;;;12.30
13570;BMP180;6856;51.460;7.158;2024-03-02T05:27:34;98891.00;;;12.30
13570;BMP180;6856;51.460;7.158;2024-03-02T05:30:12;98930.00;;;12.30
13570;BMP180;6856;51.460;7.158;2024-03-02T05:32:47;98934.00;;;12.20
13570;BMP180;6856;51.460;7.158;2024-03-02T05:35:21;98927.00;;;12.20
13570;BMP180;6856;51.460;7.158;2024-03-02T05:37:54;98931.00;;;12.20
13570;BMP180;6856;51.460;7.158;2024-03-02T05:40:28;98922.00;;;12.20
13570;BMP180;6856;51.460;7.158;2024-03-02T05:43:02;98917.00;;;12.20
13570;BMP180;6856;51.460;7.158;2024-03-02T05:45:38;98912.00;;;12.10
13570;BMP180;6856;51.460;7.158;2024-03-02T05:48:11;98917.00;;;12.10
13570;BMP180;6856;51.460;7.158;2024-03-02T05:50:45;98919.00;;;12.10
13570;BMP180;6856;51.460;7.158;2024-03-02T05:53:19;98905.00;;;12.10
13570;BMP180;6856;51.460;7.158;2024-03-02T05:55:55;98930.00;;;12.10
13570;BMP180;6856;51.460;7.158;2024-03-02T05:58:29;98933.00;;;12.10
13570;BMP180;6856;51.460;7.158;2024-03-02T06:01:17;98928.00;;;12.10
13570;BMP180;6856;51.460;7.158;2024-03-02T06:03:51;98935.00;;;12.10
13570;BMP180;6856;51.460;7.158;2024-03-02T06:06:25;98938.00;;;12.10
13570;BMP180;6856;51.460;7.158;2024-03-02T06:09:00;98935.00;;;12.10
13570;BMP180;6856;51.460;7.158;2024-03-02T06:11:34;98935.00;;;12.10
13570;BMP180;6856;51.460;7.158;2024-03-02T06:14:09;98928.00;;;12.10
13570;BMP180;6856;51.460;7.158;2024-03-02T06:16:47;98933.00;;;12.10
13570;BMP180;6856;51.460;7.158;2024-03-02T06:19:24;98939.00;;;12.10
13570;BMP180;6856;51.460;7.158;2024-03-02T06:21:57;98945.00;;;12.10
13570;BMP180;6856;51.460;7.158;2024-03-02T06:24:31;98946.00;;;12.00
13570;BMP180;6856;51.460;7.158;2024-03-02T06:27:05;98937.00;;;11.90
13570;BMP180;6856;51.460;7.158;2024-03-02T06:29:39;98953.00;;;11.90
13570;BMP180;6856;51.460;7.158;2024-03-02T06:32:18;98948.00;;;11.90
13570;BMP180;6856;51.460;7.158;2024-03-02T06:34:52;98961.00;;;11.80
13570;BMP180;6856;51.460;7.158;2024-03-02T06:37:26;98963.00;;;11.80
13570;BMP180;6856;51.460;7.158;2024-03-02T06:39:59;98969.00;;;11.80
13570;BMP180;6856;51.460;7.158;2024-03-02T06:42:35;98968.00;;;11.80
13570;BMP180;6856;51.460;7.158;2024-03-02T06:45:12;98968.00;;;11.80
13570;BMP180;6856;51.460;7.158;2024-03-02T06:47:47;98968.00;;;11.80
13570;BMP180;6856;51.460;7.158;2024-03-02T06:50:20;98977.00;;;11.70
13570;BMP180;6856;51.460;7.158;2024-03-02T06:52:56;98974.00;;;11.70
13570;BMP180;6856;51.460;7.158;2024-03-02T06:55:30;98977.00;;;11.70
13570;BMP180;6856;51.460;7.158;2024-03-02T06:58:05;98979.00;;;11.70
13570;BMP180;6856;51.460;7.158;2024-03-02T07:00:39;98987.00;;;11.70
13570;BMP180;6856;51.460;7.158;2024-03-02T07:03:15;98984.00;;;11.70
13570;BMP180;6856;51.460;7.158;2024-03-02T07:05:49;98989.00;;;11.70
13570;BMP180;6856;51.460;7.158;2024-03-02T07:08:22;98992.00;;;11.70
13570;BMP180;6856;51.460;7.158;2024-03-02T07:10:56;98991.00;;;11.70
13570;BMP180;6856;51.460;7.158;2024-03-02T07:13:30;98997.00;;;11.70
13570;BMP180;6856;51.460;7.158;2024-03-02T07:16:04;99006.00;;;11.70
13570;BMP180;6856;51.460;7.158;2024-03-02T07:18:57;98968.00;;;11.70
13570;BMP180;6856;51.460;7.158;2024-03-02T07:21:32;99006.00;;;11.70
13570;BMP180;6856;51.460;7.158;2024-03-02T07:24:07;99001.00;;;11.70
13570;BMP180;6856;51.460;7.158;2024-03-02T07:26:46;99001.00;;;11.70
13570;BMP180;6856;51.460;7.158;2024-03-02T07:29:23;99002.00;;;11.80
13570;BMP180;6856;51.460;7.158;2024-03-02T07:31:57;99006.00;;;11.80
13570;BMP180;6856;51.460;7.158;2024-03-02T07:34:33;99006.00;;;11.80
13570;BMP180;6856;51.460;7.158;2024-03-02T07:37:07;98998.00;;;11.80
13570;BMP180;6856;51.460;7.158;2024-03-02T07:39:44;98998.00;;;11.90
13570;BMP180;6856;51.460;7.158;2024-03-02T07:42:18;99008.00;;;11.90
13570;BMP180;6856;51.460;7.158;2024-03-02T07:44:52;99011.00;;;12.00
13570;BMP180;6856;51.460;7.158;2024-03-02T07:47:26;99013.00;;;12.00
13570;BMP180;6856;51.460;7.158;2024-03-02T07:50:02;99010.00;;;12.10
13570;BMP180;6856;51.460;7.158;2024-03-02T07:52:38;99010.00;;;12.10
13570;BMP180;6856;51.460;7.158;2024-03-02T07:55:12;99015.00;;;12.20
13570;BMP180;6856;51.460;7.158;2024-03-02T07:57:46;99012.00;;;12.20
13570;BMP180;6856;51.460;7.158;2024-03-02T08:00:21;99027.00;;;12.30
13570;BMP180;6856;51.460;7.158;2024-03-02T08:02:56;99026.00;;;12.30
13570;BMP180;6856;51.460;7.158;2024-03-02T08:05:31;99015.00;;;12.40
13570;BMP180;6856;51.460;7.158;2024-03-02T08:08:06;99022.00;;;12.40
13570;BMP180;6856;51.460;7.158;2024-03-02T08:10:40;99011.00;;;12.40
13570;BMP180;6856;51.460;7.158;2024-03-02T08:13:17;99014.00;;;12.50
13570;BMP180;6856;51.460;7.158;2024-03-02T08:15:51;99014.00;;;12.50
13570;BMP180;6856;51.460;7.158;2024-03-02T08:18:25;99020.00;;;12.50
13570;BMP180;6856;51.460;7.158;2024-03-02T08:21:00;99025.00;;;12.60
13570;BMP180;6856;51.460;7.158;2024-03-02T08:23:35;99032.00;;;12.60
13570;BMP180;6856;51.460;7.158;2024-03-02T08:26:09;99039.00;;;12.60
13570;BMP180;6856;51.460;7.158;2024-03-02T08:28:43;99042.00;;;12.70
13570;BMP180;6856;51.460;7.158;2024-03-02T08:31:17;99042.00;;;12.80
13570;BMP180;6856;51.460;7.158;2024-03-02T08:33:51;99033.00;;;12.90
13570;BMP180;6856;51.460;7.158;2024-03-02T08:36:28;99039.00;;;12.90
13570;BMP180;6856;51.460;7.158;2024-03-02T08:39:02;99033.00;;;13.00
13570;BMP180;6856;51.460;7.158;2024-03-02T08:41:48;99018.00;;;13.10
13570;BMP180;6856;51.460;7.158;2024-03-02T08:44:22;99038.00;;;13.10
13570;BMP180;6856;51.460;7.158;2024-03-02T08:46:57;99049.00;;;13.20
13570;BMP180;6856;51.460;7.158;2024-03-02T08:49:31;99048.00;;;13.30
13570;BMP180;6856;51.460;7.158;2024-03-02T08:52:08;99048.00;;;13.30
13570;BMP180;6856;51.460;7.158;2024-03-02T08:54:45;99050.00;;;13.40
13570;BMP180;6856;51.460;7.158;2024-03-02T08:57:19;99052.00;;;13.50
13570;BMP180;6856;51.460;7.158;2024-03-02T08:59:53;99036.00;;;13.60
13570;BMP180;6856;51.460;7.158;2024-03-02T09:02:27;99051.00;;;13.60
13570;BMP180;6856;51.460;7.158;2024-03-02T09:05:02;99055.00;;;13.70
13570;BMP180;6856;51.460;7.158;2024-03-02T09:07:38;99050.00;;;13.80
13570;BMP180;6856;51.460;7.158;2024-03-02T09:10:12;99053.00;;;13.90
13570;BMP180;6856;51.460;7.158;2024-03-02T09:12:45;99041.00;;;14.00
13570;BMP180;6856;51.460;7.158;2024-03-02T09:15:19;99052.00;;;14.10
13570;BMP180;6856;51.460;7.158;2024-03-02T09:17:53;99044.00;;;14.10
13570;BMP180;6856;51.460;7.158;2024-03-02T09:20:27;99056.00;;;14.20
13570;BMP180;6856;51.460;7.158;2024-03-02T09:23:02;99062.00;;;14.30
13570;BMP180;6856;51.460;7.158;2024-03-02T09:25:36;99069.00;;;14.30
13570;BMP180;6856;51.460;7.158;2024-03-02T09:28:11;99063.00;;;14.40
13570;BMP180;6856;51.460;7.158;2024-03-02T09:30:45;99070.00;;;14.50
13570;BMP180;6856;51.460;7.158;2024-03-02T09:33:19;99063.00;;;14.50
13570;BMP180;6856;51.460;7.158;2024-03-02T09:35:52;99073.00;;;14.60
13570;BMP180;6856;51.460;7.158;2024-03-02T09:38:32;99072.00;;;14.60
13570;BMP180;6856;51.460;7.158;2024-03-02T09:41:06;99066.00;;;14.70
13570;BMP180;6856;51.460;7.158;2024-03-02T09:43:41;99066.00;;;14.70
13570;BMP180;6856;51.460;7.158;2024-03-02T09:46:15;99041.00;;;14.80
13570;BMP180;6856;51.460;7.158;2024-03-02T09:48:49;99073.00;;;14.80
13570;BMP180;6856;51.460;7.158;2024-03-02T09:51:24;99047.00;;;14.80
13570;BMP180;6856;51.460;7.158;2024-03-02T09:54:01;99038.00;;;14.90
13570;BMP180;6856;51.460;7.158;2024-03-02T09:56:50;99059.00;;;14.90
13570;BMP180;6856;51.460;7.158;2024-03-02T09:59:24;99061.00;;;15.00
13570;BMP180;6856;51.460;7.158;2024-03-02T10:02:00;99034.00;;;15.10
13570;BMP180;6856;51.460;7.158;2024-03-02T10:04:34;98953.00;;;15.20
13570;BMP180;6856;51.460;7.158;2024-03-02T10:07:13;99055.00;;;15.20
13570;BMP180;6856;51.460;7.158;2024-03-02T10:09:49;99054.00;;;15.30
13570;BMP180;6856;51.460;7.158;2024-03-02T10:12:24;99061.00;;;15.30
13570;BMP180;6856;51.460;7.158;2024-03-02T10:15:05;99049.00;;;15.30
13570;BMP180;6856;51.460;7.158;2024-03-02T10:17:40;99067.00;;;15.40
13570;BMP180;6856;51.460;7.158;2024-03-02T10:20:24;99057.00;;;15.40
13570;BMP180;6856;51.460;7.158;2024-03-02T10:23:10;99020.00;;;15.50
13570;BMP180;6856;51.460;7.158;2024-03-02T10:25:46;99052.00;;;15.50
13570;BMP180;6856;51.460;7.158;2024-03-02T10:28:29;99053.00;;;15.60
13570;BMP180;6856;51.460;7.158;2024-03-02T10:31:03;99051.00;;;15.60
13570;BMP180;6856;51.460;7.158;2024-03-02T10:33:41;99056.00;;;15.70
13570;BMP180;6856;51.460;7.158;2024-03-02T10:36:15;99058.00;;;15.70
13570;BMP180;6856;51.460;7.158;2024-03-02T10:38:50;99050.00;;;15.80
13570;BMP180;6856;51.460;7.158;2024-03-02T10:41:32;99048.00;;;15.90
13570;BMP180;6856;51.460;7.158;2024-03-02T10:44:07;99050.00;;;15.90
13570;BMP180;6856;51.460;7.158;2024-03-02T10:46:43;99044.00;;;15.90
13570;BMP180;6856;51.460;7.158;2024-03-02T10:49:18;99031.00;;;15.90
13570;BMP180;6856;51.460;7.158;2024-03-02T10:51:52;99051.00;;;16.00
13570;BMP180;6856;51.460;7.158;2024-03-02T10:54:26;99049.00;;;16.00
13570;BMP180;6856;51.460;7.158;2024-03-02T10:57:07;99043.00;;;16.00
13570;BMP180;6856;51.460;7.158;2024-03-02T10:59:52;99035.00;;;16.00
13570;BMP180;6856;51.460;7.158;2024-03-02T11:02:28;99032.00;;;16.00
13570;BMP180;6856;51.460;7.158;2024-03-02T11:05:09;99027.00;;;16.10
13570;BMP180;6856;51.460;7.158;2024-03-02T11:07:45;99033.00;;;16.20
13570;BMP180;6856;51.460;7.158;2024-03-02T11:10:20;99029.00;;;16.20
13570;BMP180;6856;51.460;7.158;2024-03-02T11:13:03;99022.00;;;16.30
13570;BMP180;6856;51.460;7.158;2024-03-02T11:15:42;99024.00;;;16.40
13570;BMP180;6856;51.460;7.158;2024-03-02T11:18:17;99024.00;;;16.40
13570;BMP180;6856;51.460;7.158;2024-03-02T11:20:52;99010.00;;;16.60
13570;BMP180;6856;51.460;7.158;2024-03-02T11:23:33;99006.00;;;16.70
13570;BMP180;6856;51.460;7.158;2024-03-02T11:26:21;99014.00;;;16.70
13570;BMP180;6856;51.460;7.158;2024-03-02T11:28:57;98998.00;;;16.80
13570;BMP180;6856;51.460;7.158;2024-03-02T11:31:58;99022.00;;;16.90
13570;BMP180;6856;51.460;7.158;2024-03-02T11:34:35;99018.00;;;17.00
13570;BMP180;6856;51.460;7.158;2024-03-02T11:37:12;99012.00;;;17.00
13570;BMP180;6856;51.460;7.158;2024-03-02T11:39:47;99012.00;;;17.10
13570;BMP180;6856;51.460;7.158;2024-03-02T11:42:22;99011.00;;;17.20
13570;BMP180;6856;51.460;7.158;2024-03-02T11:44:59;99012.00;;;17.20
13570;BMP180;6856;51.460;7.158;2024-03-02T11:47:33;99017.00;;;17.30
13570;BMP180;6856;51.460;7.158;2024-03-02T11:50:10;99014.00;;;17.40
13570;BMP180;6856;51.460;7.158;2024-03-02T11:52:46;99003.00;;;17.40
13570;BMP180;6856;51.460;7.158;2024-03-02T11:55:21;99014.00;;;17.50
13570;BMP180;6856;51.460;7.158;2024-03-02T11:57:55;99014.00;;;17.60
13570;BMP180;6856;51.460;7.158;2024-03-02T12:00:32;99002.00;;;17.60
13570;BMP180;6856;51.460;7.158;2024-03-02T12:03:08;99015.00;;;17.70
13570;BMP180;6856;51.460;7.158;2024-03-02T12:05:42;99012.00;;;17.70
13570;BMP180;6856;51.460;7.158;2024-03-02T12:08:17;99019.00;;;17.80
13570;BMP180;6856;51.460;7.158;2024-03-02T12:10:59;99002.00;;;17.80
13570;BMP180;6856;51.460;7.158;2024-03-02T12:13:35;98988.00;;;17.80
13570;BMP180;6856;51.460;7.158;2024-03-02T12:16:10;98985.00;;;17.90
13570;BMP180;6856;51.460;7.158;2024-03-02T12:18:45;98989.00;;;17.90
13570;BMP180;6856;51.460;7.158;2024-03-02T12:21:19;98999.00;;;17.90
13570;BMP180;6856;51.460;7.158;2024-03-02T12:23:53;98981.00;;;18.00
13570;BMP180;6856;51.460;7.158;2024-03-02T12:26:27;98997.00;;;18.00
13570;BMP180;6856;51.460;7.158;2024-03-02T12:29:01;98993.00;;;18.00
13570;BMP180;6856;51.460;7.158;2024-03-02T12:31:41;98997.00;;;18.00
13570;BMP180;6856;51.460;7.158;2024-03-02T12:34:17;98980.00;;;18.00
13570;BMP180;6856;51.460;7.158;2024-03-02T12:36:51;98980.00;;;18.00
13570;BMP180;6856;51.460;7.158;2024-03-02T12:39:25;98976.00;;;18.00
13570;BMP180;6856;51.460;7.158;2024-03-02T12:41:59;98968.00;;;18.00
13570;BMP180;6856;51.460;7.158;2024-03-02T12:44:34;98985.00;;;18.00
13570;BMP180;6856;51.460;7.158;2024-03-02T12:47:09;98972.00;;;18.10
13570;BMP180;6856;51.460;7.158;2024-03-02T12:49:45;98946.00;;;18.10
13570;BMP180;6856;51.460;7.158;2024-03-02T12:52:19;98969.00;;;18.10
13570;BMP180;6856;51.460;7.158;2024-03-02T12:54:54;98972.00;;;18.20
13570;BMP180;6856;51.460;7.158;2024-03-02T12:57:32;98969.00;;;18.30
13570;BMP180;6856;51.460;7.158;2024-03-02T13:00:08;98966.00;;;18.30
13570;BMP180;6856;51.460;7.158;2024-03-02T13:02:46;98970.00;;;18.30
13570;BMP180;6856;51.460;7.158;2024-03-02T13:05:21;98963.00;;;18.40
13570;BMP180;6856;51.460;7.158;2024-03-02T13:07:55;98949.00;;;18.40
13570;BMP180;6856;51.460;7.158;2024-03-02T13:10:32;98962.00;;;18.40
13570;BMP180;6856;51.460;7.158;2024-03-02T13:13:07;98961.00;;;18.30
13570;BMP180;6856;51.460;7.158;2024-03-02T13:15:41;98948.00;;;18.40
13570;BMP180;6856;51.460;7.158;2024-03-02T13:18:18;98958.00;;;18.30
13570;BMP180;6856;51.460;7.158;2024-03-02T13:20:52;98959.00;;;18.30
13570;BMP180;6856;51.460;7.158;2024-03-02T13:23:30;98959.00;;;18.30
13570;BMP180;6856;51.460;7.158;2024-03-02T13:26:04;98961.00;;;18.30
13570;BMP180;6856;51.460;7.158;2024-03-02T13:28:39;98968.00;;;18.20
13570;BMP180;6856;51.460;7.158;2024-03-02T13:31:13;98958.00;;;18.30
13570;BMP180;6856;51.460;7.158;2024-03-02T13:33:49;98925.00;;;18.20
13570;BMP180;6856;51.460;7.158;2024-03-02T13:36:22;98956.00;;;18.20
13570;BMP180;6856;51.460;7.158;2024-03-02T13:38:56;98956.00;;;18.10
13570;BMP180;6856;51.460;7.158;2024-03-02T13:41:31;98948.00;;;18.20
13570;BMP180;6856;51.460;7.158;2024-03-02T13:44:04;98946.00;;;18.10
13570;BMP180;6856;51.460;7.158;2024-03-02T13:46:39;98936.00;;;18.10
13570;BMP180;6856;51.460;7.158;2024-03-02T13:49:16;98950.00;;;18.10
13570;BMP180;6856;51.460;7.158;2024-03-02T13:51:51;98949.00;;;18.00
13570;BMP180;6856;51.460;7.158;2024-03-02T13:54:26;98944.00;;;18.00
13570;BMP180;6856;51.460;7.158;2024-03-02T13:57:00;98950.00;;;18.00
13570;BMP180;6856;51.460;7.158;2024-03-02T13:59:34;98945.00;;;18.00
13570;BMP180;6856;51.460;7.158;2024-03-02T14:02:09;98943.00;;;18.00
13570;BMP180;6856;51.460;7.158;2024-03-02T14:04:45;98936.00;;;17.90
13570;BMP180;6856;51.460;7.158;2024-03-02T14:07:19;98932.00;;;18.00
13570;BMP180;6856;51.460;7.158;2024-03-02T14:09:53;98939.00;;;18.00
13570;BMP180;6856;51.460;7.158;2024-03-02T14:12:28;98937.00;;;18.00
13570;BMP180;6856;51.460;7.158;2024-03-02T14:15:02;98933.00;;;18.00
13570;BMP180;6856;51.460;7.158;2024-03-02T14:17:37;98936.00;;;18.00
13570;BMP180;6856;51.460;7.158;2024-03-02T14:20:12;98918.00;;;18.00
13570;BMP180;6856;51.460;7.158;2024-03-02T14:22:46;98797.00;;;18.00
13570;BMP180;6856;51.460;7.158;2024-03-02T14:25:20;98925.00;;;18.00
13570;BMP180;6856;51.460;7.158;2024-03-02T14:27:54;98917.00;;;18.00
13570;BMP180;6856;51.460;7.158;2024-03-02T14:30:49;98916.00;;;18.00
13570;BMP180;6856;51.460;7.158;2024-03-02T14:33:23;98917.00;;;18.00
13570;BMP180;6856;51.460;7.158;2024-03-02T14:35:59;98905.00;;;18.00
13570;BMP180;6856;51.460;7.158;2024-03-02T14:38:34;98913.00;;;18.00
13570;BMP180;6856;51.460;7.158;2024-03-02T14:41:07;98910.00;;;18.00
13570;BMP180;6856;51.460;7.158;2024-03-02T14:43:43;98904.00;;;18.00
13570;BMP180;6856;51.460;7.158;2024-03-02T14:46:18;98905.00;;;18.00
13570;BMP180;6856;51.460;7.158;2024-03-02T14:48:52;98902.00;;;18.00
13570;BMP180;6856;51.460;7.158;2024-03-02T14:51:27;98900.00;;;18.00
13570;BMP180;6856;51.460;7.158;2024-03-02T14:54:02;98883.00;;;18.10
13570;BMP180;6856;51.460;7.158;2024-03-02T14:56:36;98905.00;;;18.10
13570;BMP180;6856;51.460;7.158;2024-03-02T14:59:11;98906.00;;;18.10
13570;BMP180;6856;51.460;7.158;2024-03-02T15:01:45;98903.00;;;18.10
13570;BMP180;6856;51.460;7.158;2024-03-02T15:04:20;98899.00;;;18.10
13570;BMP180;6856;51.460;7.158;2024-03-02T15:06:55;98888.00;;;18.10
13570;BMP180;6856;51.460;7.158;2024-03-02T15:09:29;98912.00;;;18.10